Time;durP1;ratioP1;P1;durP2;ratioP2;P2;SDS_P1;SDS_P2;PMS_P1;PMS_P2;Temp;Humidity;BMP_temperature;BMP_pressure;BME280_temperature;BME280_humidity;BME280_pressure;Samples;Min_cycle;Max_cycle;Signal;HPM_P1;HPM_P2
2021/08/05 00:01:51;;;;;;;3.65;2.20;;;11.20;99.90;;;9.82;100.00;101483.69;5044783;28;20055;-77
2021/08/05 00:04:17;;;;;;;5.63;1.88;;;11.20;99.90;;;9.74;100.00;101476.03;5029251;28;20051;-77
2021/08/05 00:06:46;;;;;;;3.42;1.80;;;11.10;99.90;;;9.75;100.00;101480.38;5062463;28;20025;-77
2021/08/05 00:09:12;;;;;;;4.30;2.15;;;11.10;99.90;;;9.76;100.00;101499.66;5040090;28;20105;-78
2021/08/05 00:11:39;;;;;;;9.30;2.65;;;11.10;99.90;;;9.80;100.00;101511.78;5041211;28;20083;-77
2021/08/05 00:14:05;;;;;;;3.92;2.55;;;11.10;99.90;;;9.81;100.00;101529.31;5035396;28;20072;-77
2021/08/05 00:16:31;;;;;;;4.57;2.33;;;11.10;99.90;;;9.86;100.00;101517.72;5036233;28;20489;-77
2021/08/05 00:18:57;;;;;;;3.83;2.35;;;11.20;99.90;;;9.89;100.00;101527.28;5044116;28;20120;-77
2021/08/05 00:21:23;;;;;;;2.92;2.08;;;11.20;99.90;;;9.92;100.00;101532.47;5016725;28;20070;-77
2021/08/05 00:23:49;;;;;;;4.43;2.55;;;11.20;99.90;;;9.91;100.00;101535.13;5027756;28;20157;-77
2021/08/05 00:26:15;;;;;;;4.25;2.40;;;11.20;99.90;;;9.82;100.00;101596.78;5013562;28;20071;-77
2021/08/05 00:28:42;;;;;;;5.22;2.25;;;11.10;99.90;;;9.82;100.00;101565.22;5025453;28;20185;-77
2021/08/05 00:31:10;;;;;;;5.00;2.20;;;11.10;99.90;;;9.74;100.00;101539.16;5045016;28;20526;-77
2021/08/05 00:33:36;;;;;;;4.55;2.20;;;11.10;99.90;;;9.69;100.00;101529.69;5043451;28;20091;-77
2021/08/05 00:36:03;;;;;;;3.03;2.10;;;11.00;99.90;;;9.65;100.00;101532.41;5044086;28;20600;-77
2021/08/05 00:38:29;;;;;;;6.85;2.55;;;11.00;99.90;;;9.71;100.00;101548.91;5015697;28;20498;-77
2021/08/05 00:40:55;;;;;;;5.22;2.40;;;11.10;99.90;;;9.79;100.00;101557.44;5041992;28;20055;-77
2021/08/05 00:43:22;;;;;;;7.57;2.30;;;11.10;99.90;;;9.80;100.00;101559.13;5033374;28;20070;-77
2021/08/05 00:45:48;;;;;;;3.40;2.38;;;11.10;99.90;;;9.78;100.00;101579.38;5034946;28;20078;-77
2021/08/05 00:48:14;;;;;;;4.38;2.20;;;11.10;99.90;;;9.72;100.00;101611.09;5042051;28;20489;-77
2021/08/05 00:50:41;;;;;;;6.10;2.40;;;11.00;99.90;;;9.52;100.00;101603.78;5042266;28;20550;-77
2021/08/05 00:53:08;;;;;;;5.13;2.40;;;10.80;99.90;;;9.17;99.64;101734.38;5029902;28;20123;-77
2021/08/05 00:55:34;;;;;;;2.92;1.90;;;10.60;99.90;;;8.95;98.56;101624.56;5040672;28;20474;-77
2021/08/05 00:58:01;;;;;;;2.65;1.80;;;10.40;99.90;;;8.88;98.96;101567.00;5033619;28;20055;-77
2021/08/05 01:00:29;;;;;;;4.07;2.30;;;10.40;99.90;;;8.94;100.00;101565.06;5033293;28;20105;-77
2021/08/05 01:03:08;;;;;;;6.10;2.45;;;10.50;99.90;;;9.12;100.00;101579.47;5032814;28;20101;-77
2021/08/05 01:05:42;;;;;;;6.15;2.40;;;10.60;99.90;;;9.20;100.00;101574.88;5044210;28;21094;-77
2021/08/05 01:08:10;;;;;;;4.07;3.25;;;10.70;99.90;;;9.30;100.00;101574.63;5025856;28;20535;-77
2021/08/05 01:10:42;;;;;;;6.50;3.42;;;10.80;99.90;;;9.40;100.00;101590.09;5044655;28;20072;-77
2021/08/05 01:13:27;;;;;;;5.13;3.25;;;10.80;99.90;;;9.48;100.00;101578.47;5041408;28;20075;-77
2021/08/05 01:15:55;;;;;;;6.22;3.30;;;10.90;99.90;;;9.55;100.00;101964.78;5027451;28;20051;-77
2021/08/05 01:18:31;;;;;;;6.20;3.10;;;10.90;99.90;;;9.49;100.00;101854.50;5023065;28;20066;-77
2021/08/05 01:21:24;;;;;;;4.63;2.70;;;10.80;99.90;;;9.42;100.00;101897.63;5044082;28;20137;-77
2021/08/05 01:24:05;;;;;;;3.60;2.35;;;10.70;99.90;;;9.20;100.00;101910.34;5043154;28;20056;-77
2021/08/05 01:26:31;;;;;;;5.43;2.60;;;10.60;99.90;;;9.06;100.00;101939.56;5039606;28;20061;-77
2021/08/05 01:29:00;;;;;;;5.43;2.85;;;10.50;99.90;;;9.08;100.00;101936.91;5049362;28;20052;-77
2021/08/05 01:31:28;;;;;;;4.35;2.72;;;10.50;99.90;;;9.11;100.00;101921.06;5041678;28;20132;-77
2021/08/05 01:33:56;;;;;;;6.40;3.50;;;10.50;99.90;;;9.13;100.00;101914.03;5026366;28;20070;-77
2021/08/05 01:36:25;;;;;;;4.68;3.55;;;10.60;99.90;;;9.26;100.00;101967.19;5032812;28;20074;-77
2021/08/05 01:38:55;;;;;;;6.78;4.05;;;10.60;99.90;;;9.36;100.00;101974.84;5041111;28;20063;-77
2021/08/05 01:41:23;;;;;;;6.70;3.90;;;10.80;99.90;;;9.43;100.00;101992.19;5043539;28;20064;-77
2021/08/05 01:43:50;;;;;;;5.40;3.65;;;10.80;99.90;;;9.49;100.00;102000.88;5029726;28;20059;-77
2021/08/05 01:46:21;;;;;;;7.35;3.65;;;10.90;99.90;;;9.50;100.00;102066.56;5046693;28;20325;-77
2021/08/05 01:48:50;;;;;;;8.13;3.90;;;10.90;99.90;;;9.48;100.00;102115.69;5039407;28;20063;-77
2021/08/05 01:51:23;;;;;;;5.63;3.70;;;10.80;99.90;;;9.44;100.00;102099.13;5034729;28;20537;-77
2021/08/05 01:53:53;;;;;;;6.32;3.83;;;10.80;99.90;;;9.44;100.00;102132.44;5055121;28;20485;-77
2021/08/05 01:56:25;;;;;;;9.13;4.28;;;10.80;99.90;;;9.46;100.00;102133.28;5029941;28;20053;-78
2021/08/05 01:58:55;;;;;;;8.68;3.85;;;10.90;99.90;;;9.53;100.00;102078.78;5023342;28;20107;-77
2021/08/05 02:01:21;;;;;;;9.45;3.92;;;10.90;99.90;;;9.53;100.00;102092.81;5032000;28;20513;-77
2021/08/05 02:04:06;;;;;;;5.82;3.80;;;10.90;99.90;;;9.55;100.00;102087.53;5042037;28;20093;-77
2021/08/05 02:06:47;;;;;;;13.55;3.80;;;10.90;99.90;;;9.55;100.00;102093.63;5039290;28;20060;-77
2021/08/05 02:09:28;;;;;;;12.45;4.00;;;10.90;99.90;;;9.56;100.00;102134.78;5040894;28;20059;-78
2021/08/05 02:11:56;;;;;;;6.85;3.92;;;10.90;99.90;;;9.55;100.00;102161.16;5041445;28;20099;-77
2021/08/05 02:14:24;;;;;;;6.47;4.32;;;10.90;99.90;;;9.54;100.00;102204.09;5024702;28;20148;-77
2021/08/05 02:16:53;;;;;;;6.30;3.72;;;10.90;99.90;;;9.53;100.00;102160.31;5022656;28;20057;-77
2021/08/05 02:19:20;;;;;;;6.78;3.60;;;10.90;99.90;;;9.50;100.00;102197.16;5040840;28;20066;-77
2021/08/05 02:21:47;;;;;;;5.47;3.72;;;10.80;99.90;;;9.44;100.00;102156.09;5042403;28;20524;-77
2021/08/05 02:24:16;;;;;;;7.68;3.65;;;10.80;99.90;;;9.41;100.00;102159.63;5039574;28;20063;-77
2021/08/05 02:26:42;;;;;;;6.00;4.03;;;10.80;99.90;;;9.44;100.00;102161.34;5023405;28;20486;-77
2021/08/05 02:29:09;;;;;;;9.25;4.20;;;10.90;99.90;;;9.45;100.00;102147.28;5040729;28;20048;-77
2021/08/05 02:31:37;;;;;;;5.05;3.50;;;10.80;99.90;;;9.44;100.00;102169.25;5031070;28;20091;-77
2021/08/05 02:34:07;;;;;;;5.53;3.08;;;10.80;99.90;;;9.41;100.00;102166.66;5038888;28;20060;-78
2021/08/05 02:36:33;;;;;;;4.53;3.42;;;10.80;99.90;;;9.41;100.00;102319.13;5039841;28;20057;-77
2021/08/05 02:38:59;;;;;;;6.57;3.22;;;10.80;99.90;;;9.35;100.00;102304.34;5033330;28;20105;-76
2021/08/05 02:41:27;;;;;;;7.05;3.70;;;10.70;99.90;;;9.33;100.00;102295.63;5016444;28;20055;-77
2021/08/05 02:43:59;;;;;;;5.65;3.50;;;10.70;99.90;;;9.28;100.00;102328.13;5040677;28;20114;-78
2021/08/05 02:46:27;;;;;;;5.45;2.80;;;10.60;99.90;;;9.21;100.00;102309.81;5039908;28;20597;-76
2021/08/05 02:48:54;;;;;;;6.03;3.08;;;10.60;99.90;;;9.09;100.00;102422.13;5052709;28;20071;-77
2021/08/05 02:51:21;;;;;;;6.05;3.40;;;10.50;99.90;;;9.04;100.00;102385.41;5027824;28;20068;-76
2021/08/05 02:53:48;;;;;;;4.55;2.90;;;10.40;99.90;;;8.97;100.00;102407.41;5043035;28;20068;-77
2021/08/05 02:56:16;;;;;;;4.95;2.70;;;10.30;99.90;;;8.90;100.00;102445.13;5039695;28;20109;-76
2021/08/05 02:58:43;;;;;;;6.03;3.10;;;10.40;99.90;;;8.86;100.00;102367.28;5029533;28;20527;-77
2021/08/05 03:01:09;;;;;;;7.25;3.22;;;10.30;99.90;;;8.80;100.00;102384.84;5057482;28;20063;-76
2021/08/05 03:03:35;;;;;;;6.95;2.90;;;10.30;99.90;;;8.81;100.00;102351.53;5040856;28;20070;-76
2021/08/05 03:06:04;;;;;;;4.57;2.67;;;10.20;99.90;;;8.81;100.00;102401.44;5038551;28;20603;-77
2021/08/05 03:08:36;;;;;;;7.13;3.28;;;10.20;99.90;;;8.79;100.00;102372.59;5040868;28;20075;-77
2021/08/05 03:11:02;;;;;;;13.07;3.83;;;10.20;99.90;;;8.70;100.00;102430.47;5025949;28;20244;-77
2021/08/05 03:13:28;;;;;;;6.28;2.88;;;10.10;99.90;;;8.56;100.00;102424.53;5028733;28;20549;-76
2021/08/05 03:15:54;;;;;;;4.53;2.80;;;10.00;99.90;;;8.50;100.00;102466.59;5035830;28;20069;-77
2021/08/05 03:18:20;;;;;;;4.68;3.17;;;10.00;99.90;;;8.51;100.00;102403.59;5036613;28;20060;-76
2021/08/05 03:20:46;;;;;;;4.88;3.20;;;9.90;99.90;;;8.45;100.00;102358.16;5024655;28;20064;-77
2021/08/05 03:23:12;;;;;;;6.47;3.28;;;9.80;99.90;;;8.41;100.00;102373.91;5036036;28;20452;-77
2021/08/05 03:25:38;;;;;;;12.35;3.72;;;9.80;99.90;;;8.44;100.00;102370.38;5035863;28;20067;-76
2021/08/05 03:28:04;;;;;;;4.40;3.10;;;9.90;99.90;;;8.48;100.00;102397.47;5030944;28;20102;-77
2021/08/05 03:30:30;;;;;;;6.78;3.08;;;9.90;99.90;;;8.62;100.00;102456.84;5041228;28;20102;-77
2021/08/05 03:33:00;;;;;;;7.05;3.40;;;10.00;99.90;;;8.85;100.00;102545.00;5024299;28;20068;-77
2021/08/05 03:35:27;;;;;;;7.68;4.63;;;10.10;99.90;;;8.78;100.00;102481.16;5039681;28;20581;-77
2021/08/05 03:37:53;;;;;;;10.88;4.63;;;10.20;99.90;;;8.92;100.00;102488.91;5022217;28;20082;-77
2021/08/05 03:40:20;;;;;;;9.13;4.68;;;10.30;99.90;;;8.96;100.00;102468.69;5030795;28;20064;-77
2021/08/05 03:42:46;;;;;;;7.35;4.00;;;10.40;99.90;;;9.07;100.00;102477.34;5042967;28;20080;-77
2021/08/05 03:45:12;;;;;;;9.43;4.88;;;10.40;99.90;;;9.00;100.00;102508.06;5040268;28;20571;-76
2021/08/05 03:47:38;;;;;;;10.57;4.35;;;10.40;99.90;;;9.09;100.00;102524.59;5040051;28;20094;-77
2021/08/05 03:50:05;;;;;;;9.02;4.38;;;10.40;99.90;;;9.06;100.00;102551.78;5039675;28;20059;-77
2021/08/05 03:52:31;;;;;;;9.93;4.88;;;10.50;99.90;;;9.22;100.00;102563.88;5037760;28;20481;-76
2021/08/05 03:54:57;;;;;;;12.93;4.47;;;10.60;99.90;;;9.29;100.00;102540.13;5034197;28;20376;-77
2021/08/05 03:57:23;;;;;;;11.30;4.60;;;10.70;99.90;;;9.41;100.00;102597.81;5038858;28;20054;-77
2021/08/05 03:59:49;;;;;;;12.27;5.60;;;10.80;99.90;;;9.51;100.00;102604.72;5032453;28;20429;-76
2021/08/05 04:02:15;;;;;;;5.43;3.78;;;10.90;99.90;;;9.58;100.00;102622.16;5039207;28;20593;-77
2021/08/05 04:04:42;;;;;;;6.32;3.88;;;11.00;99.90;;;9.65;100.00;102647.53;5048218;28;20119;-77
2021/08/05 04:07:08;;;;;;;5.43;3.88;;;11.10;99.90;;;9.84;100.00;102808.63;5031699;28;20590;-77
2021/08/05 04:09:35;;;;;;;6.13;4.03;;;11.30;99.90;;;9.96;100.00;102681.34;5044492;28;20073;-76
2021/08/05 04:12:01;;;;;;;7.40;3.60;;;11.40;99.90;;;10.07;100.00;102681.19;5051727;28;20078;-76
2021/08/05 04:14:27;;;;;;;7.22;3.85;;;11.50;99.90;;;10.10;100.00;102622.38;5025771;28;20056;-76
2021/08/05 04:16:53;;;;;;;6.70;3.42;;;11.60;99.90;;;10.30;100.00;102654.56;5055555;28;20459;-76
2021/08/05 04:19:19;;;;;;;7.68;3.55;;;12.20;99.90;;;10.87;100.00;102690.56;5040166;28;20129;-77
2021/08/05 04:21:45;;;;;;;9.02;3.10;;;13.10;99.90;;;11.47;100.00;102744.91;5030130;28;20079;-77
2021/08/05 04:24:11;;;;;;;3.50;2.85;;;13.90;99.90;;;12.11;99.01;102693.50;5038978;28;20028;-76
2021/08/05 04:26:37;;;;;;;5.75;2.55;;;14.70;99.90;;;13.13;96.31;102741.34;5042547;28;20094;-77
2021/08/05 04:29:03;;;;;;;5.32;2.20;;;15.90;99.90;;;13.99;88.81;102698.47;5043017;28;20488;-77
2021/08/05 04:31:29;;;;;;;4.07;1.90;;;16.90;99.90;;;14.80;83.37;102719.81;5042254;28;20335;-77
2021/08/05 04:33:55;;;;;;;4.65;1.67;;;17.90;99.90;;;15.91;80.89;102747.88;5040615;28;20032;-77
2021/08/05 04:36:21;;;;;;;1.88;1.42;;;18.80;99.90;;;16.42;75.87;102746.81;5033101;28;20021;-78
2021/08/05 04:38:47;;;;;;;3.63;1.48;;;19.60;99.90;;;17.17;74.34;102766.84;5042571;28;20369;-77
2021/08/05 04:41:13;;;;;;;2.75;1.45;;;20.40;99.90;;;17.80;71.18;102765.00;5042621;28;20021;-78
2021/08/05 04:43:39;;;;;;;5.93;1.45;;;21.10;99.90;;;18.38;69.41;102779.28;5044770;28;20021;-77
2021/08/05 04:46:05;;;;;;;4.38;1.70;;;21.80;99.90;;;18.59;65.93;102889.47;5035233;28;20033;-78
2021/08/05 04:48:31;;;;;;;2.95;1.42;;;22.40;99.90;;;19.25;65.38;102811.59;5039586;28;20445;-77
2021/08/05 04:50:57;;;;;;;2.25;1.50;;;22.80;99.90;;;19.79;63.25;102766.09;5044306;28;21981;-75
2021/08/05 04:53:23;;;;;;;2.28;1.35;;;23.30;99.90;;;20.17;62.13;102707.84;5039621;28;20037;-75
2021/08/05 04:55:49;;;;;;;4.47;1.40;;;23.70;99.90;;;20.54;61.05;102761.97;5043103;28;20440;-75
2021/08/05 04:58:15;;;;;;;7.32;1.42;;;24.00;99.90;;;20.68;60.70;102638.91;5039755;28;20016;-75
2021/08/05 05:00:42;;;;;;;5.68;1.42;;;24.50;99.90;;;20.74;59.26;102604.72;5044992;28;20024;-76
2021/08/05 05:03:10;;;;;;;2.03;1.40;;;24.80;99.90;;;20.78;59.27;102572.31;5025176;28;20035;-76
2021/08/05 05:05:37;;;;;;;3.92;1.45;;;24.90;99.90;;;21.14;59.80;102519.25;5045703;28;20113;-75
2021/08/05 05:08:19;;;;;;;1.80;1.20;;;25.00;99.90;;;21.84;58.82;102568.38;5040322;28;20376;-75
2021/08/05 05:10:47;;;;;;;2.83;1.35;;;25.40;99.90;;;22.04;58.16;102539.38;5042660;28;20101;-76
2021/08/05 05:13:14;;;;;;;1.77;1.10;;;25.50;99.90;;;22.13;58.29;102530.69;5039490;28;20118;-75
2021/08/05 05:15:41;;;;;;;2.28;1.30;;;26.10;99.90;;;22.91;57.00;102564.78;5041871;28;20020;-75
2021/08/05 05:18:08;;;;;;;7.40;1.40;;;26.80;99.90;;;23.67;54.94;102644.50;5023413;28;20032;-76
2021/08/05 05:20:36;;;;;;;4.88;1.23;;;27.10;99.90;;;23.45;55.84;102642.47;5038798;28;20385;-76
2021/08/05 05:23:03;;;;;;;4.65;1.40;;;27.10;99.90;;;23.19;56.14;102612.06;5042462;28;20033;-75
2021/08/05 05:25:30;;;;;;;6.15;2.30;;;26.80;99.90;;;23.37;57.71;102566.03;5039273;28;20043;-75
2021/08/05 05:27:56;;;;;;;1.67;1.40;;;27.30;99.90;;;24.30;53.39;102594.16;5042896;28;20103;-75
2021/08/05 05:30:22;;;;;;;4.95;1.30;;;27.40;99.90;;;24.77;52.36;102565.44;5042133;28;20028;-76
2021/08/05 05:32:49;;;;;;;3.22;1.58;;;27.30;99.20;;;24.15;52.75;102498.44;5023868;28;20041;-75
2021/08/05 05:35:18;;;;;;;2.75;1.60;;;27.50;99.30;;;24.79;52.63;102487.19;5042185;28;20032;-75
2021/08/05 05:37:47;;;;;;;2.67;1.15;;;27.60;98.80;;;25.13;51.31;102819.56;5043474;28;20037;-75
2021/08/05 05:40:14;;;;;;;2.10;1.23;;;27.80;98.70;;;24.85;51.25;102605.22;5025669;28;20024;-75
2021/08/05 05:42:41;;;;;;;1.25;1.15;;;27.90;98.60;;;24.38;52.81;102439.25;5026531;28;20178;-75
2021/08/05 05:45:11;;;;;;;2.58;1.20;;;27.20;98.50;;;23.95;52.48;102389.63;5028294;28;20021;-75
2021/08/05 05:47:37;;;;;;;3.05;1.20;;;26.60;99.30;;;23.71;54.33;102346.63;5032992;28;21117;-74
2021/08/05 05:50:05;;;;;;;2.35;1.25;;;26.20;99.90;;;22.99;56.89;102263.41;5032547;28;20025;-75
2021/08/05 05:52:31;;;;;;;2.55;1.15;;;26.50;99.90;;;24.94;51.11;102447.38;5024322;28;20492;-75
2021/08/05 05:54:57;;;;;;;3.47;1.33;;;27.20;99.10;;;25.76;48.69;102468.53;5025324;28;20048;-75
2021/08/05 05:57:24;;;;;;;3.30;1.08;;;27.10;98.90;;;24.80;50.32;102337.22;5044531;28;20037;-75
2021/08/05 05:59:49;;;;;;;7.43;1.13;;;27.20;98.40;;;25.96;48.21;102465.06;5022295;28;20463;-74
2021/08/05 06:02:16;;;;;;;6.68;1.35;;;26.70;98.90;;;24.86;50.58;102332.16;5034180;28;20063;-75
2021/08/05 06:04:41;;;;;;;5.90;1.00;;;26.70;99.10;;;24.95;50.38;102387.13;5035652;28;20071;-75
2021/08/05 06:07:07;;;;;;;2.60;1.00;;;27.00;99.30;;;25.91;49.06;102478.06;5041252;28;20078;-75
2021/08/05 06:09:33;;;;;;;2.45;1.25;;;27.30;98.30;;;24.88;50.98;102313.16;5058403;28;20598;-74
2021/08/05 06:11:59;;;;;;;2.08;1.13;;;27.30;98.80;;;25.90;48.21;102405.34;5030423;28;20049;-74
2021/08/05 06:14:25;;;;;;;2.65;1.38;;;27.00;98.00;;;25.28;48.98;102320.66;5025294;28;20500;-74
2021/08/05 06:16:51;;;;;;;0.95;0.82;;;26.40;98.70;;;23.83;52.35;102194.25;5040086;28;20039;-74
2021/08/05 06:19:17;;;;;;;1.55;1.20;;;26.50;99.70;;;24.48;52.53;102259.88;5042816;28;20182;-74
2021/08/05 06:21:44;;;;;;;2.85;1.33;;;26.80;98.20;;;24.12;51.63;102194.56;5040952;28;20047;-74
2021/08/05 06:24:12;;;;;;;2.38;1.23;;;26.50;98.70;;;24.77;50.07;102269.13;5024181;28;20017;-74
2021/08/05 06:26:42;;;;;;;5.57;1.48;;;26.50;99.20;;;24.78;49.78;102237.66;5025385;28;20029;-74
2021/08/05 06:29:10;;;;;;;2.20;1.20;;;26.60;98.90;;;24.90;49.71;102260.00;5040692;28;20059;-74
2021/08/05 06:31:37;;;;;;;2.75;1.20;;;26.10;99.30;;;24.71;50.27;102217.63;5039364;28;20017;-74
2021/08/05 06:34:05;;;;;;;5.70;1.20;;;26.20;99.30;;;25.13;49.59;102269.72;5031621;28;20029;-74
2021/08/05 06:36:32;;;;;;;2.78;1.15;;;26.20;99.20;;;23.65;53.29;102116.72;5039582;28;20049;-74
2021/08/05 06:38:58;;;;;;;2.95;1.30;;;26.00;99.90;;;25.86;48.39;102341.81;5031347;28;20094;-73
2021/08/05 06:41:25;;;;;;;4.38;1.10;;;26.30;99.90;;;24.86;51.60;102194.78;5033285;28;20040;-74
2021/08/05 06:43:51;;;;;;;1.98;1.10;;;26.30;99.00;;;24.86;50.00;102170.53;5032115;28;20511;-74
2021/08/05 06:46:17;;;;;;;3.25;1.23;;;26.10;99.40;;;25.15;49.90;102224.63;5039426;28;20028;-74
2021/08/05 06:48:43;;;;;;;2.30;1.33;;;26.20;99.40;;;25.28;49.56;102224.47;5042798;28;20437;-74
2021/08/05 06:51:10;;;;;;;1.33;1.00;;;26.80;99.30;;;25.43;48.43;102203.41;5028106;28;20488;-74
2021/08/05 06:53:37;;;;;;;2.42;1.27;;;27.10;98.00;;;25.18;48.85;102175.00;5041563;28;20059;-74
2021/08/05 06:56:05;;;;;;;3.05;1.27;;;26.70;98.60;;;25.66;47.50;102219.44;5025413;28;20036;-74
2021/08/05 06:58:32;;;;;;;2.70;1.10;;;26.60;98.60;;;25.10;48.42;102119.06;5032349;28;20031;-74
2021/08/05 07:01:00;;;;;;;2.38;1.17;;;26.20;99.30;;;25.64;47.33;102191.72;5038828;28;20041;-74
2021/08/05 07:03:27;;;;;;;1.55;1.20;;;26.20;99.00;;;25.66;48.08;102177.16;5040983;28;20037;-74
2021/08/05 07:05:53;;;;;;;1.95;1.15;;;26.80;98.70;;;26.24;47.79;102249.41;5024392;28;20029;-74
2021/08/05 07:08:19;;;;;;;1.40;1.02;;;27.20;97.60;;;25.38;49.33;102149.06;5038583;28;20024;-74
2021/08/05 07:10:45;;;;;;;6.45;1.25;;;26.30;98.90;;;25.46;48.80;102799.09;5048755;28;20040;-75
2021/08/05 07:13:11;;;;;;;1.55;1.13;;;25.80;99.20;;;24.19;51.57;102316.91;5047497;28;20059;-74
2021/08/05 07:15:37;;;;;;;5.57;1.10;;;24.60;99.90;;;22.91;55.09;102218.28;5041568;28;20021;-74
2021/08/05 07:18:03;;;;;;;4.80;1.58;;;24.50;99.90;;;24.04;51.67;102273.25;5023422;28;20469;-74
2021/08/05 07:20:29;;;;;;;2.10;1.20;;;25.10;99.90;;;25.28;48.91;102342.22;5030877;28;20063;-75
2021/08/05 07:22:55;;;;;;;1.70;1.13;;;26.30;99.20;;;26.55;46.36;102406.84;5023432;28;20109;-74
2021/08/05 07:25:21;;;;;;;1.73;0.90;;;26.60;97.00;;;25.98;44.49;102319.16;5022551;28;20095;-74
2021/08/05 07:27:47;;;;;;;2.38;1.00;;;26.60;96.40;;;25.38;44.56;102241.56;5041621;28;20021;-74
2021/08/05 07:30:16;;;;;;;3.17;1.23;;;26.00;96.50;;;25.10;45.34;102243.03;5037387;28;20468;-74
2021/08/05 07:32:42;;;;;;;2.25;1.10;;;25.50;98.00;;;24.55;47.65;102193.78;5039919;28;20063;-74
2021/08/05 07:35:10;;;;;;;5.57;1.45;;;26.00;97.30;;;25.17;45.73;102235.28;5038137;28;20025;-74
2021/08/05 07:37:36;;;;;;;4.88;1.20;;;26.00;96.90;;;23.30;49.81;102020.97;5031800;28;20146;-73
2021/08/05 07:40:04;;;;;;;1.88;0.93;;;25.60;97.40;;;24.09;48.30;102144.56;5031299;28;20540;-74
2021/08/05 07:42:30;;;;;;;2.22;1.15;;;25.50;96.90;;;24.73;45.67;102207.53;5016059;28;20522;-75
2021/08/05 07:44:56;;;;;;;1.60;0.82;;;25.40;96.60;;;25.21;44.68;102249.41;5040689;28;20033;-74
2021/08/05 07:47:24;;;;;;;1.42;0.98;;;25.90;97.60;;;24.63;48.20;102159.00;5040369;28;20032;-73
2021/08/05 07:49:51;;;;;;;1.95;1.05;;;25.90;98.50;;;25.60;46.34;102255.03;5023785;28;20029;-74
2021/08/05 07:52:17;;;;;;;2.38;1.08;;;25.80;98.20;;;25.37;46.93;102182.38;5046449;28;20510;-73
2021/08/05 07:54:43;;;;;;;2.13;0.90;;;26.00;98.30;;;24.76;46.73;102094.19;5050040;28;20041;-74
2021/08/05 07:57:09;;;;;;;2.33;1.10;;;25.90;97.30;;;24.97;46.18;102119.28;5032279;28;20400;-74
2021/08/05 07:59:35;;;;;;;1.90;0.93;;;25.80;97.70;;;24.94;47.13;102091.72;5040520;28;20112;-74
2021/08/05 08:02:01;;;;;;;1.65;0.93;;;25.20;98.00;;;23.24;50.55;102015.19;5039822;28;20040;-74
2021/08/05 08:04:27;;;;;;;3.60;1.30;;;24.80;99.90;;;23.96;50.81;102052.41;5040566;28;20029;-74
2021/08/05 08:06:53;;;;;;;2.55;1.00;;;24.40;99.90;;;22.79;52.73;101905.94;5029309;28;20085;-74
2021/08/05 08:09:19;;;;;;;4.75;1.08;;;23.80;99.90;;;23.54;51.62;102019.94;5034346;28;20094;-73
2021/08/05 08:11:45;;;;;;;6.00;1.13;;;24.60;98.40;;;23.69;48.03;101983.75;5034150;28;20166;-74
2021/08/05 08:14:11;;;;;;;3.13;1.25;;;24.20;99.90;;;23.03;52.03;101915.72;5045065;28;20058;-74
2021/08/05 08:16:40;;;;;;;1.33;0.95;;;24.00;99.90;;;23.72;52.77;102023.81;5041570;28;20033;-74
2021/08/05 08:19:07;;;;;;;6.03;1.13;;;24.20;99.90;;;23.73;54.01;101984.34;5044029;28;20025;-74
2021/08/05 08:21:33;;;;;;;3.50;1.30;;;24.80;99.90;;;24.62;51.26;102075.63;5041661;28;20044;-74
2021/08/05 08:23:59;;;;;;;6.65;1.30;;;25.80;99.30;;;25.91;47.01;102200.13;5059576;28;20054;-74
2021/08/05 08:26:25;;;;;;;3.95;1.38;;;26.70;97.90;;;26.42;45.96;102222.59;5036182;28;20037;-74
2021/08/05 08:28:51;;;;;;;2.63;1.20;;;26.90;96.30;;;26.42;42.79;102159.63;5041126;28;20090;-75
2021/08/05 08:31:17;;;;;;;1.65;1.08;;;26.60;96.40;;;24.57;45.21;101936.00;5033578;28;20032;-74
2021/08/05 08:46:48;;;;;;;2.30;1.20;;;24.40;97.20;;;23.30;47.92;101810.50;5050537;27;20928;-76
2021/08/05 08:49:22;;;;;;;2.72;1.30;;;24.70;99.00;;;24.57;46.51;101973.72;5035192;28;20323;-76
2021/08/05 08:51:49;;;;;;;5.57;2.97;;;25.50;97.40;;;25.04;44.86;102003.72;5034090;28;20033;-76
2021/08/05 08:54:15;;;;;;;4.13;1.60;;;25.30;97.20;;;24.55;46.88;101906.53;5002138;28;20033;-76
2021/08/05 08:56:44;;;;;;;5.13;1.63;;;25.70;97.60;;;25.34;45.76;102015.50;5018205;28;20398;-76
2021/08/05 08:59:11;;;;;;;1.60;1.00;;;26.20;95.60;;;25.15;43.08;101971.28;5043738;28;20046;-76
2021/08/05 09:01:41;;;;;;;2.97;1.23;;;26.00;96.30;;;24.48;45.47;101850.66;5022818;28;20052;-76
2021/08/05 09:04:12;;;;;;;2.65;1.13;;;25.60;95.80;;;24.04;45.15;101793.47;4992014;28;20436;-76
2021/08/05 09:07:07;;;;;;;4.25;1.05;;;25.60;95.60;;;24.77;44.54;101892.03;4985565;28;20043;-77
2021/08/05 09:09:33;;;;;;;1.90;1.27;;;25.40;96.50;;;24.12;47.33;101804.44;4988649;28;20397;-76
2021/08/05 09:12:03;;;;;;;4.22;1.15;;;24.80;95.90;;;23.47;46.74;101758.84;4993336;28;20132;-77
2021/08/05 09:14:53;;;;;;;3.08;1.10;;;24.70;95.70;;;23.92;44.03;101792.72;5001433;28;20153;-76
2021/08/05 09:17:28;;;;;;;2.22;1.02;;;25.00;97.20;;;24.45;44.30;101849.09;5006997;28;20030;-76
2021/08/05 09:20:07;;;;;;;1.77;1.05;;;24.90;95.90;;;23.98;46.01;101780.59;4982946;28;20060;-76
2021/08/05 09:22:52;;;;;;;3.67;1.20;;;24.70;96.20;;;24.07;45.24;101783.31;4988000;28;20112;-76
2021/08/05 09:25:37;;;;;;;2.88;1.15;;;24.80;96.40;;;23.99;44.96;101756.22;5010206;28;20037;-76
2021/08/05 09:28:25;;;;;;;4.00;1.10;;;24.10;96.60;;;22.67;47.96;101657.25;4991392;28;20032;-77
2021/08/05 09:30:55;;;;;;;6.25;1.33;;;23.70;97.40;;;22.51;47.74;101609.38;4978969;28;20037;-76
2021/08/05 09:33:38;;;;;;;1.95;1.00;;;23.60;97.20;;;22.83;47.19;101648.75;4998646;28;20043;-76
2021/08/05 09:36:35;;;;;;;0.95;0.85;;;23.60;97.30;;;22.67;47.66;101617.81;5001221;28;20042;-76
2021/08/05 09:39:17;;;;;;;;;;;23.50;98.00;;;22.57;47.07;101633.03;4994083;28;20124;-76
2021/08/05 09:42:02;;;;;;;3.90;1.30;;;23.30;97.80;;;22.40;48.75;101618.31;5002425;28;19913;-76
2021/08/05 09:44:49;;;;;;;3.05;1.40;;;23.20;98.60;;;22.61;48.87;101636.28;5002477;28;20508;-76
2021/08/05 09:47:34;;;;;;;2.85;0.98;;;23.50;95.40;;;22.87;44.38;101671.69;4980516;28;20088;-76
2021/08/05 09:50:03;;;;;;;3.78;1.23;;;23.70;95.20;;;22.46;45.06;101682.22;4985615;28;20045;-76
2021/08/05 09:52:33;;;;;;;1.20;0.93;;;23.60;95.80;;;22.92;44.93;101718.66;4990784;28;20033;-75
2021/08/05 09:55:23;;;;;;;2.20;1.00;;;23.70;96.70;;;22.78;45.89;101667.09;4988607;28;20099;-76
2021/08/05 09:58:01;;;;;;;2.42;1.15;;;23.80;96.10;;;22.60;44.46;101631.91;4966035;28;20106;-76
2021/08/05 10:00:51;;;;;;;2.80;1.20;;;23.60;95.90;;;22.45;45.40;101634.03;4977300;28;20038;-76
2021/08/05 10:03:31;;;;;;;1.45;0.90;;;23.30;95.80;;;22.07;45.26;101570.94;4961652;28;20476;-76
2021/08/05 10:06:06;;;;;;;3.28;1.42;;;23.70;96.10;;;23.18;44.85;101704.06;4963782;28;20398;-76
2021/08/05 10:08:59;;;;;;;1.58;0.90;;;24.00;95.20;;;23.27;42.34;101684.47;4960342;28;20045;-76
2021/08/05 10:12:15;;;;;;;4.25;1.08;;;24.10;93.70;;;23.78;42.00;101750.91;4967419;28;20087;-76
2021/08/05 10:15:34;;;;;;;1.77;1.00;;;24.20;94.20;;;23.30;42.40;101638.50;4963718;28;20096;-76
2021/08/05 10:18:24;;;;;;;3.60;1.15;;;23.80;95.00;;;22.99;44.64;101606.19;4975170;28;20041;-76
2021/08/05 10:21:02;;;;;;;2.15;1.10;;;23.80;95.80;;;23.28;44.73;101652.09;4958217;28;20040;-76
2021/08/05 10:23:29;;;;;;;10.10;1.20;;;24.00;96.20;;;23.48;44.34;101658.44;4992390;28;20022;-77
2021/08/05 10:26:23;;;;;;;1.65;1.10;;;24.10;94.60;;;23.66;42.90;101676.63;4971766;28;20029;-76
2021/08/05 10:28:52;;;;;;;4.22;1.15;;;24.00;94.80;;;23.22;43.50;101786.97;4964649;28;20042;-76
2021/08/05 10:31:42;;;;;;;4.55;1.20;;;24.10;94.30;;;23.30;42.50;101737.94;4984443;28;20505;-77
2021/08/05 10:34:32;;;;;;;2.10;1.10;;;23.90;94.40;;;23.16;43.26;101700.66;4972406;28;20045;-77
2021/08/05 10:37:02;;;;;;;37.53;2.50;;;23.80;94.60;;;22.31;44.94;101585.06;4982695;28;20025;-76